Flight Track Log - Related Links

Times and Time Zones

All times are in EDT time to prevent confusion due to time zone crossing. See the KAL1332 flight status page for this flight to view local times or setup timezone preferences in your user account.

Time Position Orientation Groundspeed Altitude Reporting Facility
EDT Latitude Longitude Course Direction KTS MPH feet Rate Location/Type
Wed 08:04:00 PM 35.1037 127.5378 346° North  Level Estimated
Wed 08:05:00 PM 35.1917 127.5118 346° North  Level Estimated
Wed 08:06:00 PM 35.2796 127.4858 346° North  Level Estimated
Wed 08:07:00 PM 35.3675 127.4598 346° North  Level Estimated
Wed 08:08:00 PM 35.4555 127.4336 346° North  Level Estimated
Wed 08:09:00 PM 35.5434 127.4074 346° North  Level Estimated
Wed 08:10:00 PM 35.6313 127.3812 346° North  Level Estimated
Wed 08:11:00 PM 35.7192 127.3549 346° North  Level Estimated
Wed 08:12:00 PM 35.8072 127.3286 346° North  Level Estimated
Wed 08:13:00 PM 35.8951 127.3021 346° North  Level Estimated
Wed 08:14:00 PM 35.9830 127.2757 346° North  Level Estimated
Wed 08:15:00 PM 36.0709 127.2491 346° North  Level Estimated
Wed 08:16:00 PM 36.1588 127.2225 346° North  Level Estimated
Wed 08:17:00 PM 36.2466 127.1959 346° North  Level Estimated
Wed 08:18:00 PM 36.3345 127.1692 346° North  Level Estimated
Wed 08:19:00 PM 36.4224 127.1424 346° North  Level Estimated
Wed 08:20:00 PM 36.5103 127.1156 346° North  Level Estimated
Wed 08:21:00 PM 36.5981 127.0887 346° North  Level Estimated
Wed 08:22:00 PM 36.6860 127.0617 346° North  Level Estimated
Wed 08:23:00 PM 36.7738 127.0347 346° North  Level Estimated
Wed 08:24:00 PM 36.8617 127.0076 346° North  Level Estimated
Wed 08:25:00 PM 36.9495 126.9805 346° North  Level Estimated
Wed 08:26:00 PM 37.0373 126.9533 346° North  Level Estimated
Wed 08:27:00 PM 37.1251 126.9260 346° North  Level Estimated
Wed 08:28:00 PM 37.2130 126.8987 346° North  Level Estimated
Wed 08:29:00 PM 37.3008 126.8713 346° North  Level Estimated
Wed 08:30:00 PM 37.3886 126.8438 346° North  Level Estimated
Wed 08:31:00 PM 37.4764 126.8163 346° North  Level Estimated
Wed 08:32:00 PM 37.5583 126.7906 346° North  Level Estimated
Wed 08:33:00 PM 37.5583 126.7906 288° West  Level Estimated
Wed 08:34:00 PM 37.5583 126.7906 288° West  Level Estimated
Wed 08:35:00 PM 37.5583 126.7906 288° West  Level Estimated
Wed 08:36:00 PM 37.5583 126.7906 288° West  Level Estimated
Wed 08:37:00 PM 37.5583 126.7906 288° West  Level Estimated
Wed 08:38:00 PM 37.5583 126.7906 288° West  Level Estimated
Wed 08:39:00 PM 37.5583 126.7906 288° West  Level Estimated
Wed 08:40:00 PM 37.5583 126.7906 288° West  Level Estimated
Wed 08:41:00 PM 37.5583 126.7906 288° West  Level Estimated
Wed 08:42:00 PM 37.5583 126.7906 288° West  Level Estimated
Wed 08:43:00 PM 37.5583 126.7906 288° West  Level Estimated
Wed 08:44:00 PM 37.5583 126.7906 288° West  Level Estimated
Wed 08:45:00 PM 37.5583 126.7906 288° West  Level Estimated
Wed 08:46:00 PM 37.5583 126.7906 288° West  Level Estimated
Wed 08:47:00 PM 37.5583 126.7906 288° West  Level Estimated
Wed 08:48:00 PM 37.5583 126.7906 288° West  Level Estimated

Login

Don't have an account? Register now (free) for customized features, flight alerts, and more!